OLBA/BEY METAR and TAF weather

Enter ICAO airport designator
Station Type Date Time Source
OLBA METAR 2019/12/13 03:00 UTC NOAA

OLBA 130300Z 16010KT 9999 BKN027 16/10 Q1011 NOSIG


Station Type Date Time Source
OLBA Decoded METAR 2019/12/13 03:00 UTC NOAA

Beyrouth Aeroport , Lebanon (OLBA) 33-49N 035-29E 19M
Dec 12, 2019 - 10:00 PM EST / 2019.12.13 0300 UTC
Wind: from the SSE (160 degrees) at 12 MPH (10 KT):0
Visibility: greater than 7 mile(s):0
Sky conditions: mostly cloudy
Temperature: 60 F (16 C)
Dew Point: 50 F (10 C)
Relative Humidity: 67%
Pressure (altimeter): 29.85 in. Hg (1011 hPa)
ob: OLBA 130300Z 16010KT 9999 BKN027 16/10 Q1011 NOSIG
cycle: 3

Station Type Date Time Source
OLBA TAF 2019/12/12 18:55 UTC NOAA

TAF OLBA 121600Z 1218/1324 17015KT 7000 -RA FEW023TCU BKN025
TEMPO 1218/1324 RA PROB40
TEMPO 1218/1318 31015G35KT 5000 TSRA FEW020CB BKN025
BECMG 1306/1308 24012G22KT
BECMG 1318/1320 15010KT BKN026

Example: see airport list